In Rescue
 
Open Full Screen Window  High Contrast Mode
Wind Gusting 00 knots
05
June 22, 2024 9:37 PM CDT
Weather Information
Wind Direction
  330 °
Wind Speed
  05 kt (6 mph)
Wind Gust
  00 kt (0 mph)
Altimeter
29.90 in
Visibility
10 SM
Temperature
19° C
66° F
Dewpoint
17° C
63° F
Humidity
88%
Sky Condition
Clear
VFR

METAR KDVP 230237Z AUTO 33005KT 10SM CLR 19/17 A2990 RMK AO2 T01940165

FAA Disclaimer: The data displayed is for advisory purposes only and is not to be used for flight planning or operations.